createdAt,value
2023-05-23T00:00:06.781Z,7.80
2023-05-23T00:03:16.344Z,8.07
2023-05-23T00:06:21.471Z,7.38
2023-05-23T00:09:24.840Z,8.90
2023-05-23T00:12:28.053Z,8.43
2023-05-23T00:15:31.481Z,10.03
2023-05-23T00:18:35.808Z,8.65
2023-05-23T00:21:39.091Z,9.60
2023-05-23T00:24:45.961Z,7.85
2023-05-23T00:27:49.244Z,9.67
2023-05-23T00:30:52.804Z,8.93
2023-05-23T00:33:56.265Z,10.73
2023-05-23T00:36:59.874Z,11.05
2023-05-23T00:40:03.241Z,8.80
2023-05-23T00:43:08.353Z,10.17
2023-05-23T00:46:11.916Z,10.43
2023-05-23T00:49:15.840Z,9.77
2023-05-23T00:52:20.151Z,7.65
2023-05-23T00:55:25.145Z,8.32
2023-05-23T00:58:28.979Z,10.20
2023-05-23T01:01:33.349Z,8.37
2023-05-23T01:04:37.458Z,8.65
2023-05-23T01:07:41.625Z,10.07
2023-05-23T01:10:45.080Z,9.85
2023-05-23T01:14:05.010Z,8.93
2023-05-23T01:17:13.836Z,10.87
2023-05-23T01:20:23.216Z,13.65
2023-05-23T01:23:47.359Z,12.93
2023-05-23T01:27:17.395Z,9.35
2023-05-23T01:30:23.432Z,7.63
2023-05-23T01:33:28.640Z,11.63
2023-05-23T01:36:35.547Z,8.50
2023-05-23T01:39:39.229Z,8.82
2023-05-23T01:42:42.698Z,10.25
2023-05-23T01:45:46.220Z,9.67
2023-05-23T01:48:49.730Z,11.80
2023-05-23T01:51:53.471Z,11.57
2023-05-23T01:54:57.739Z,8.50
2023-05-23T01:58:03.025Z,8.57
2023-05-23T02:01:06.508Z,9.50
2023-05-23T02:04:10.201Z,12.20
2023-05-23T02:07:13.343Z,8.98
2023-05-23T02:10:16.652Z,10.50
2023-05-23T02:13:19.886Z,12.93
2023-05-23T02:16:23.413Z,10.70
2023-05-23T02:19:27.549Z,9.63
2023-05-23T02:22:30.821Z,13.07
2023-05-23T02:25:34.177Z,12.95
2023-05-23T02:28:37.484Z,10.18
2023-05-23T02:31:40.795Z,8.57
2023-05-23T02:34:46.661Z,10.23
2023-05-23T02:37:49.950Z,11.55
2023-05-23T02:40:53.804Z,9.07
2023-05-23T02:43:57.652Z,9.68
2023-05-23T02:47:01.298Z,10.50
2023-05-23T02:50:05.099Z,9.50
2023-05-23T02:53:08.608Z,11.05
2023-05-23T02:56:13.511Z,10.07
2023-05-23T02:59:17.999Z,11.18
2023-05-23T03:02:21.849Z,11.73
2023-05-23T03:05:25.087Z,11.77
2023-05-23T03:08:28.341Z,10.57
2023-05-23T03:11:31.573Z,12.00
2023-05-23T03:14:36.180Z,10.20
2023-05-23T03:17:39.452Z,11.37
2023-05-23T03:20:42.592Z,11.40
2023-05-23T03:23:45.843Z,9.63
2023-05-23T03:26:49.139Z,8.88
2023-05-23T03:29:52.470Z,12.27
2023-05-23T03:32:55.885Z,10.43
2023-05-23T03:35:59.211Z,10.93
2023-05-23T03:39:02.638Z,15.00
2023-05-23T03:42:06.066Z,7.82
2023-05-23T03:45:09.436Z,10.77
2023-05-23T03:48:12.921Z,9.23
2023-05-23T03:51:17.705Z,10.63
2023-05-23T03:54:21.108Z,9.57
2023-05-23T03:57:24.548Z,11.50
2023-05-23T04:00:28.361Z,10.02
2023-05-23T04:03:34.800Z,9.20
2023-05-23T04:06:39.710Z,9.40
2023-05-23T04:09:42.876Z,14.30
2023-05-23T04:12:47.958Z,8.77
2023-05-23T04:15:56.210Z,11.60
2023-05-23T04:19:00.252Z,10.13
2023-05-23T04:22:03.808Z,11.83
2023-05-23T04:25:07.583Z,10.13
2023-05-23T04:28:17.632Z,12.13
2023-05-23T04:31:22.449Z,13.25
2023-05-23T04:34:26.111Z,9.20
2023-05-23T04:37:33.029Z,10.67
2023-05-23T04:40:40.007Z,11.68
2023-05-23T04:43:54.594Z,11.20
2023-05-23T04:47:15.920Z,11.60
2023-05-23T04:50:33.341Z,9.10
2023-05-23T04:53:37.103Z,11.23
2023-05-23T04:56:40.760Z,11.75
2023-05-23T04:59:46.582Z,10.90
2023-05-23T05:02:49.996Z,7.97
2023-05-23T05:05:53.853Z,8.87
2023-05-23T05:08:57.630Z,9.07
2023-05-23T05:12:00.971Z,11.38
2023-05-23T05:15:05.633Z,12.38
2023-05-23T05:18:09.272Z,10.60
2023-05-23T05:21:12.604Z,11.47
2023-05-23T05:24:16.999Z,20.57
2023-05-23T05:27:39.482Z,11.95
2023-05-23T05:30:46.549Z,12.30
2023-05-23T05:33:50.756Z,12.57
2023-05-23T05:36:56.124Z,15.43
2023-05-23T05:40:06.453Z,12.93
2023-05-23T05:43:11.516Z,13.70
2023-05-23T05:46:15.424Z,13.45
2023-05-23T05:49:18.966Z,13.38
2023-05-23T05:52:22.957Z,17.20
2023-05-23T05:55:26.321Z,14.73
2023-05-23T05:58:31.711Z,12.43
2023-05-23T06:01:38.434Z,13.88
2023-05-23T06:04:45.854Z,16.02
2023-05-23T06:07:50.168Z,8.93
2023-05-23T06:10:53.663Z,12.53
2023-05-23T06:13:56.969Z,10.95
2023-05-23T06:17:00.706Z,13.00
2023-05-23T06:20:05.133Z,11.45
2023-05-23T06:23:09.494Z,13.20
2023-05-23T06:26:12.875Z,11.93
2023-05-23T06:29:16.244Z,11.82
2023-05-23T06:32:19.541Z,12.70
2023-05-23T06:35:22.921Z,10.00
2023-05-23T06:38:29.825Z,10.47
2023-05-23T06:41:33.151Z,9.10
2023-05-23T06:44:36.618Z,11.13
2023-05-23T06:47:43.842Z,9.00
2023-05-23T06:50:47.382Z,15.57
2023-05-23T06:53:51.486Z,13.63
2023-05-23T06:56:54.954Z,11.97
2023-05-23T06:59:58.350Z,10.63
2023-05-23T07:03:03.836Z,12.38
2023-05-23T07:06:08.143Z,11.93
2023-05-23T07:09:13.869Z,12.47
2023-05-23T07:12:17.918Z,10.83
2023-05-23T07:15:23.919Z,10.43
2023-05-23T07:18:38.428Z,12.05
2023-05-23T07:21:42.524Z,10.82
2023-05-23T07:24:46.736Z,9.63
2023-05-23T07:27:54.645Z,8.07
2023-05-23T07:30:58.903Z,10.88
2023-05-23T07:34:02.745Z,9.18
2023-05-23T07:37:16.032Z,9.57
2023-05-23T07:40:22.895Z,10.07
2023-05-23T07:43:26.185Z,10.57
2023-05-23T07:46:29.552Z,7.65
2023-05-23T07:49:33.054Z,8.40
2023-05-23T07:52:36.699Z,11.93
2023-05-23T07:55:42.345Z,12.10
2023-05-23T07:58:49.557Z,10.87
2023-05-23T08:05:13.460Z,9.43
2023-05-23T08:08:18.448Z,11.82
2023-05-23T08:11:22.192Z,7.77
2023-05-23T08:14:38.670Z,16.10
2023-05-23T08:17:58.982Z,9.82
2023-05-23T08:21:03.672Z,10.52
2023-05-23T08:24:07.402Z,12.15
2023-05-23T08:27:13.356Z,11.27
2023-05-23T08:30:17.672Z,11.77
2023-05-23T08:33:21.661Z,10.38
2023-05-23T08:36:26.482Z,11.07
2023-05-23T08:39:33.077Z,12.52
2023-05-23T08:43:06.133Z,9.40
2023-05-23T08:46:09.890Z,13.37
2023-05-23T08:49:18.095Z,11.50
2023-05-23T08:52:25.276Z,9.30
2023-05-23T08:55:31.063Z,9.05
2023-05-23T08:58:39.111Z,11.60
2023-05-23T09:01:43.476Z,11.20
2023-05-23T09:04:49.182Z,8.20
2023-05-23T09:07:57.937Z,8.88
2023-05-23T09:11:04.102Z,13.48
2023-05-23T09:14:10.172Z,9.67
2023-05-23T09:17:22.649Z,7.50
2023-05-23T09:20:29.170Z,10.55
2023-05-23T09:23:37.508Z,7.88
2023-05-23T09:26:40.967Z,11.73
2023-05-23T09:29:44.988Z,11.70
2023-05-23T09:33:04.649Z,8.70
2023-05-23T09:36:09.831Z,11.05
2023-05-23T09:39:15.341Z,7.55
2023-05-23T09:42:25.544Z,9.88
2023-05-23T09:45:32.757Z,10.67
2023-05-23T09:48:38.156Z,9.43
2023-05-23T09:51:56.721Z,7.63
2023-05-23T09:55:00.546Z,8.65
2023-05-23T09:58:05.694Z,11.73
2023-05-23T10:01:11.850Z,8.53
2023-05-23T10:04:23.564Z,8.97
2023-05-23T10:07:28.424Z,8.57
2023-05-23T10:10:35.771Z,10.05
2023-05-23T10:13:43.149Z,9.15
2023-05-23T10:16:46.593Z,9.80
2023-05-23T10:20:10.744Z,9.07
2023-05-23T10:23:14.330Z,8.32
2023-05-23T10:26:18.899Z,10.02
2023-05-23T10:29:23.866Z,11.07
2023-05-23T10:32:28.840Z,8.43
2023-05-23T10:35:42.646Z,9.70
2023-05-23T10:39:08.431Z,7.68
2023-05-23T10:42:19.529Z,9.05
2023-05-23T10:45:27.469Z,14.48
2023-05-23T10:48:35.808Z,9.07
2023-05-23T10:51:40.138Z,10.70
2023-05-23T10:54:51.996Z,10.70
2023-05-23T10:58:21.516Z,8.65
2023-05-23T11:01:26.997Z,8.15
2023-05-23T11:04:31.153Z,6.80
2023-05-23T11:07:34.974Z,7.77
2023-05-23T11:10:54.364Z,6.80
2023-05-23T11:14:03.124Z,8.57
2023-05-23T11:17:19.701Z,8.13
2023-05-23T11:20:27.569Z,7.00
2023-05-23T11:23:43.409Z,7.00
2023-05-23T11:26:55.327Z,9.82
2023-05-23T11:30:09.443Z,9.65
2023-05-23T11:33:15.053Z,10.95
2023-05-23T11:36:18.488Z,7.17
2023-05-23T11:39:22.334Z,10.97
2023-05-23T11:42:26.033Z,7.30
2023-05-23T11:45:34.160Z,8.95
2023-05-23T11:48:44.477Z,9.00
2023-05-23T11:51:47.806Z,9.47
2023-05-23T11:54:52.879Z,8.53
2023-05-23T11:58:01.364Z,8.73
2023-05-23T12:01:05.465Z,8.50
2023-05-23T12:04:13.065Z,7.97
2023-05-23T12:07:49.829Z,7.67
2023-05-23T12:10:58.913Z,7.90
2023-05-23T12:14:06.390Z,8.68
2023-05-23T12:17:09.977Z,9.25
2023-05-23T12:20:14.299Z,7.65
2023-05-23T12:23:42.146Z,7.70
2023-05-23T12:26:53.988Z,9.97
2023-05-23T12:30:16.964Z,8.20
2023-05-23T12:33:20.275Z,8.40
2023-05-23T12:36:27.916Z,7.47
2023-05-23T12:39:33.783Z,6.40
2023-05-23T12:42:54.961Z,7.73
2023-05-23T12:45:58.146Z,9.27
2023-05-23T12:49:07.009Z,8.02
2023-05-23T12:52:10.372Z,8.65
2023-05-23T12:55:14.371Z,6.87
2023-05-23T12:58:17.958Z,7.10
2023-05-23T13:01:21.657Z,10.95
2023-05-23T13:04:25.044Z,8.90
2023-05-23T13:07:28.442Z,11.75
2023-05-23T13:10:32.261Z,11.77
2023-05-23T13:13:43.263Z,17.20
2023-05-23T13:16:46.624Z,8.30
2023-05-23T13:19:49.998Z,9.40
2023-05-23T13:22:53.348Z,8.73
2023-05-23T13:25:58.157Z,9.27
2023-05-23T13:29:01.489Z,8.67
2023-05-23T13:32:06.074Z,7.72
2023-05-23T13:35:09.631Z,10.02
2023-05-23T13:38:13.095Z,7.95
2023-05-23T13:41:16.287Z,7.53
2023-05-23T13:44:19.612Z,6.93
2023-05-23T13:47:23.009Z,9.10
2023-05-23T13:50:26.520Z,7.00
2023-05-23T13:53:29.945Z,6.95
2023-05-23T13:56:33.768Z,9.17
2023-05-23T13:59:37.039Z,8.37
2023-05-23T14:02:40.401Z,6.65
2023-05-23T14:05:43.785Z,16.25
2023-05-23T14:08:47.156Z,6.93
2023-05-23T14:11:52.286Z,8.60
2023-05-23T14:14:55.610Z,7.80
2023-05-23T14:17:58.897Z,8.10
2023-05-23T14:21:02.288Z,6.95
2023-05-23T14:24:06.090Z,5.93
2023-05-23T14:27:11.075Z,8.03
2023-05-23T14:30:14.941Z,6.77
2023-05-23T14:33:18.300Z,7.07
2023-05-23T14:36:21.500Z,6.90
2023-05-23T14:39:25.669Z,7.80
2023-05-23T14:42:28.933Z,7.07
2023-05-23T14:45:32.282Z,6.80
2023-05-23T14:48:35.892Z,7.65
2023-05-23T14:54:45.365Z,6.28
2023-05-23T14:57:48.611Z,6.20
2023-05-23T15:00:52.327Z,6.57
2023-05-23T15:03:55.535Z,8.75
2023-05-23T15:06:58.900Z,7.70
2023-05-23T15:10:03.414Z,7.90
2023-05-23T15:13:06.735Z,14.43
2023-05-23T15:16:10.082Z,9.33
2023-05-23T15:19:13.434Z,7.28
2023-05-23T15:22:35.119Z,6.95
2023-05-23T15:25:49.668Z,10.80
2023-05-23T15:28:53.340Z,8.60
2023-05-23T15:31:56.676Z,7.70
2023-05-23T15:34:59.955Z,7.40
2023-05-23T15:38:03.259Z,7.30
2023-05-23T15:41:06.676Z,10.00
2023-05-23T15:44:12.611Z,8.67
2023-05-23T15:47:18.733Z,9.10
2023-05-23T15:50:22.011Z,9.00
2023-05-23T15:53:25.228Z,8.70
2023-05-23T15:56:28.493Z,7.38
2023-05-23T15:59:31.871Z,10.27
2023-05-23T16:02:35.117Z,10.13
2023-05-23T16:05:38.457Z,9.35
2023-05-23T16:08:41.882Z,6.72
2023-05-23T16:11:45.204Z,8.68
2023-05-23T16:14:48.510Z,8.20
2023-05-23T16:17:51.969Z,6.70
2023-05-23T16:20:57.136Z,6.90
2023-05-23T16:24:00.721Z,8.93
2023-05-23T16:27:04.558Z,6.97
2023-05-23T16:30:08.454Z,7.03
2023-05-23T16:33:11.964Z,11.13
2023-05-23T16:36:15.316Z,6.95
2023-05-23T16:39:18.644Z,7.93
2023-05-23T16:42:22.386Z,7.97
2023-05-23T16:45:25.631Z,7.40
2023-05-23T16:48:28.994Z,9.70
2023-05-23T16:51:32.301Z,9.38
2023-05-23T16:54:36.139Z,8.27
2023-05-23T16:57:39.900Z,9.15
2023-05-23T17:00:43.254Z,8.20
2023-05-23T17:03:47.260Z,8.00
2023-05-23T17:06:50.931Z,9.13
2023-05-23T17:09:54.076Z,7.25
2023-05-23T17:12:57.544Z,7.78
2023-05-23T17:16:01.435Z,6.50
2023-05-23T17:19:05.735Z,7.33
2023-05-23T17:22:09.085Z,7.10
2023-05-23T17:25:12.279Z,10.38
2023-05-23T17:28:15.619Z,13.38
2023-05-23T17:31:19.248Z,10.47
2023-05-23T17:34:22.652Z,9.90
2023-05-23T17:37:26.560Z,14.68
2023-05-23T17:40:29.962Z,13.10
2023-05-23T17:43:33.369Z,11.48
2023-05-23T17:46:36.762Z,13.17
2023-05-23T17:49:41.849Z,11.63
2023-05-23T17:52:45.688Z,23.13
2023-05-23T17:55:49.052Z,30.55
2023-05-23T17:58:52.707Z,20.80
2023-05-23T18:01:56.014Z,15.63
2023-05-23T18:04:59.292Z,10.37
2023-05-23T18:08:02.757Z,11.25
2023-05-23T18:11:05.955Z,10.65
2023-05-23T18:14:09.404Z,14.02
2023-05-23T18:17:13.092Z,16.03
2023-05-23T18:20:16.544Z,14.07
2023-05-23T18:23:19.857Z,10.10
2023-05-23T18:26:23.195Z,12.60
2023-05-23T18:29:26.505Z,9.90
2023-05-23T18:32:30.519Z,8.77
2023-05-23T18:35:33.968Z,9.30
2023-05-23T18:38:37.282Z,8.57
2023-05-23T18:41:45.488Z,10.80
2023-05-23T18:44:48.772Z,10.70
2023-05-23T18:47:54.994Z,10.77
2023-05-23T18:50:58.428Z,10.93
2023-05-23T18:54:01.682Z,11.80
2023-05-23T18:57:05.152Z,8.45
2023-05-23T19:00:10.761Z,12.00
2023-05-23T19:03:14.714Z,7.97
2023-05-23T19:06:18.188Z,9.47
2023-05-23T19:09:21.431Z,11.43
2023-05-23T19:12:24.698Z,9.07
2023-05-23T19:15:27.976Z,8.95
2023-05-23T19:18:31.800Z,10.03
2023-05-23T19:21:35.120Z,9.97
2023-05-23T19:24:38.957Z,7.88
2023-05-23T19:27:42.305Z,9.57
2023-05-23T19:30:45.590Z,9.32
2023-05-23T19:33:48.864Z,14.93
2023-05-23T19:36:52.086Z,8.57
2023-05-23T19:39:55.372Z,10.45
2023-05-23T19:42:58.613Z,8.05
2023-05-23T19:46:01.976Z,9.48
2023-05-23T19:49:08.891Z,10.90
2023-05-23T19:52:12.276Z,8.60
2023-05-23T19:55:16.049Z,6.80
2023-05-23T19:58:19.328Z,9.23
2023-05-23T20:01:22.569Z,7.18
2023-05-23T20:04:26.019Z,7.27
2023-05-23T20:07:29.285Z,9.03
2023-05-23T20:10:32.629Z,12.13
2023-05-23T20:13:37.735Z,7.80
2023-05-23T20:16:41.310Z,9.48
2023-05-23T20:19:44.638Z,9.37
2023-05-23T20:22:47.992Z,12.37
2023-05-23T20:25:51.812Z,9.45
2023-05-23T20:28:55.161Z,9.25
2023-05-23T20:31:58.396Z,10.23
2023-05-23T20:35:01.648Z,9.00
2023-05-23T20:38:05.029Z,12.27
2023-05-23T20:41:08.479Z,10.23
2023-05-23T20:44:11.992Z,16.10
2023-05-23T20:47:15.715Z,7.00
2023-05-23T20:50:19.175Z,5.90
2023-05-23T20:53:23.098Z,13.23
2023-05-23T20:56:27.369Z,10.10
2023-05-23T20:59:30.642Z,6.97
2023-05-23T21:02:33.906Z,6.45
2023-05-23T21:05:37.241Z,12.30
2023-05-23T21:08:40.429Z,12.03
2023-05-23T21:11:44.204Z,9.23
2023-05-23T21:14:47.368Z,11.18
2023-05-23T21:17:53.690Z,16.88
2023-05-23T21:20:56.880Z,21.30
2023-05-23T21:24:00.174Z,14.50
2023-05-23T21:27:03.635Z,22.77
2023-05-23T21:30:08.135Z,18.70
2023-05-23T21:33:11.617Z,27.48
2023-05-23T21:36:14.934Z,72.93
2023-05-23T21:39:18.227Z,48.90
2023-05-23T21:42:22.283Z,120.05
2023-05-23T21:45:25.496Z,175.73
2023-05-23T21:48:28.797Z,211.38
2023-05-23T21:51:32.418Z,88.23
2023-05-23T21:54:35.666Z,29.07
2023-05-23T21:57:38.887Z,27.35
2023-05-23T22:00:43.584Z,23.50
2023-05-23T22:03:46.939Z,22.27
2023-05-23T22:06:50.376Z,23.20
2023-05-23T22:09:54.574Z,20.40
2023-05-23T22:12:58.315Z,20.10
2023-05-23T22:16:01.585Z,20.70
2023-05-23T22:19:05.355Z,17.90
2023-05-23T22:22:09.879Z,23.27
2023-05-23T22:25:13.238Z,19.20
2023-05-23T22:28:16.532Z,18.38
2023-05-23T22:31:20.037Z,23.55
2023-05-23T22:34:23.335Z,21.05
2023-05-23T22:37:26.704Z,27.23
2023-05-23T22:40:29.920Z,23.87
2023-05-23T22:43:33.101Z,19.90
2023-05-23T22:46:39.053Z,20.95
2023-05-23T22:49:42.621Z,20.17
2023-05-23T22:52:45.846Z,23.57
2023-05-23T22:55:52.019Z,18.10
2023-05-23T22:58:55.240Z,27.35
2023-05-23T23:01:58.451Z,19.85
2023-05-23T23:05:01.688Z,21.55
2023-05-23T23:08:05.015Z,22.67
2023-05-23T23:11:08.279Z,20.13
2023-05-23T23:14:11.865Z,21.42
2023-05-23T23:17:15.159Z,18.67
2023-05-23T23:20:22.585Z,21.63
2023-05-23T23:23:26.046Z,19.80
2023-05-23T23:26:29.259Z,18.17
2023-05-23T23:29:32.508Z,19.15
2023-05-23T23:32:35.877Z,17.23
2023-05-23T23:35:39.431Z,18.38
2023-05-23T23:38:42.635Z,18.17
2023-05-23T23:41:45.838Z,19.57
2023-05-23T23:44:49.137Z,19.38
2023-05-23T23:47:52.392Z,17.85
2023-05-23T23:50:55.761Z,20.60
2023-05-23T23:53:59.316Z,16.33
2023-05-23T23:57:02.581Z,18.00
